createdAt,value
2019-01-29T00:01:05.930Z,1.30
2019-01-29T00:03:53.940Z,1.40
2019-01-29T00:06:41.970Z,1.30
2019-01-29T00:09:30.074Z,1.27
2019-01-29T00:12:18.136Z,1.30
2019-01-29T00:15:06.202Z,1.30
2019-01-29T00:17:54.334Z,1.40
2019-01-29T00:20:42.459Z,1.33
2019-01-29T00:23:23.234Z,1.50
2019-01-29T00:26:03.972Z,1.10
2019-01-29T00:28:45.010Z,1.47
2019-01-29T00:31:25.940Z,1.47
2019-01-29T00:34:06.423Z,1.23
2019-01-29T00:36:47.717Z,1.10
2019-01-29T00:39:28.622Z,1.30
2019-01-29T00:42:09.142Z,1.20
2019-01-29T00:44:50.055Z,1.30
2019-01-29T00:47:30.813Z,1.43
2019-01-29T00:50:13.458Z,1.20
2019-01-29T00:52:54.153Z,1.07
2019-01-29T00:55:35.474Z,1.20
2019-01-29T00:58:16.519Z,1.37
2019-01-29T01:00:57.576Z,1.33
2019-01-29T01:03:38.517Z,1.37
2019-01-29T01:06:19.391Z,1.20
2019-01-29T01:09:00.263Z,1.40
2019-01-29T01:11:40.960Z,1.33
2019-01-29T01:14:21.718Z,1.10
2019-01-29T01:17:02.445Z,1.10
2019-01-29T01:19:43.517Z,1.30
2019-01-29T01:22:24.566Z,1.20
2019-01-29T01:25:05.265Z,1.37
2019-01-29T01:27:46.086Z,1.37
2019-01-29T01:30:27.153Z,1.17
2019-01-29T01:33:07.833Z,1.30
2019-01-29T01:35:48.810Z,1.40
2019-01-29T01:38:29.745Z,1.20
2019-01-29T01:41:10.360Z,1.30
2019-01-29T01:43:51.421Z,1.20
2019-01-29T01:46:32.738Z,1.43
2019-01-29T01:49:15.141Z,1.30
2019-01-29T01:51:56.309Z,1.20
2019-01-29T01:54:37.277Z,1.20
2019-01-29T01:57:18.287Z,1.10
2019-01-29T01:59:59.211Z,1.40
2019-01-29T02:02:38.361Z,1.30
2019-01-29T02:05:26.391Z,1.40
2019-01-29T02:08:14.405Z,1.33
2019-01-29T02:11:02.466Z,1.30
2019-01-29T02:13:50.544Z,1.37
2019-01-29T02:16:38.667Z,1.50
2019-01-29T02:19:26.701Z,1.30
2019-01-29T02:22:07.139Z,1.13
2019-01-29T02:24:46.315Z,1.40
2019-01-29T02:27:34.367Z,1.30
2019-01-29T02:30:23.269Z,1.20
2019-01-29T02:33:11.293Z,1.30
2019-01-29T02:35:59.713Z,1.33
2019-01-29T02:38:47.743Z,1.43
2019-01-29T02:41:35.854Z,1.33
2019-01-29T02:44:23.981Z,1.40
2019-01-29T02:47:11.994Z,1.20
2019-01-29T02:50:00.262Z,1.10
2019-01-29T02:52:49.848Z,1.50
2019-01-29T02:55:37.860Z,1.30
2019-01-29T02:58:25.956Z,1.30
2019-01-29T03:01:14.065Z,1.33
2019-01-29T03:04:02.092Z,1.20
2019-01-29T03:06:50.221Z,1.43
2019-01-29T03:09:38.241Z,1.40
2019-01-29T03:12:26.277Z,1.40
2019-01-29T03:15:15.848Z,1.30
2019-01-29T03:18:03.883Z,1.20
2019-01-29T03:20:51.916Z,1.20
2019-01-29T03:23:32.376Z,1.30
2019-01-29T03:26:13.173Z,1.30
2019-01-29T03:28:54.093Z,1.20
2019-01-29T03:31:34.518Z,1.30
2019-01-29T03:34:15.736Z,1.23
2019-01-29T03:36:54.799Z,1.33
2019-01-29T03:39:42.851Z,1.10
2019-01-29T03:42:30.879Z,1.67
2019-01-29T03:45:18.892Z,1.40
2019-01-29T03:48:06.918Z,1.67
2019-01-29T03:50:54.959Z,1.50
2019-01-29T03:53:42.982Z,1.13
2019-01-29T03:56:31.088Z,1.47
2019-01-29T03:59:19.104Z,1.20
2019-01-29T04:02:07.168Z,1.33
2019-01-29T04:04:55.205Z,1.27
2019-01-29T04:07:43.239Z,1.20
2019-01-29T04:10:31.277Z,1.47
2019-01-29T04:13:19.303Z,1.40
2019-01-29T04:16:07.338Z,1.40
2019-01-29T04:18:55.347Z,1.20
2019-01-29T04:21:36.573Z,1.50
2019-01-29T04:24:17.351Z,1.20
2019-01-29T04:26:58.275Z,1.40
2019-01-29T04:29:39.374Z,1.50
2019-01-29T04:32:19.911Z,1.30
2019-01-29T04:35:01.041Z,1.37
2019-01-29T04:37:42.128Z,1.30
2019-01-29T04:40:23.439Z,1.20
2019-01-29T04:43:04.370Z,1.23
2019-01-29T04:45:45.077Z,1.40
2019-01-29T04:48:25.476Z,1.30
2019-01-29T04:51:06.629Z,1.47
2019-01-29T04:53:56.903Z,1.27
2019-01-29T04:56:29.543Z,1.30
2019-01-29T04:59:10.233Z,1.30
2019-01-29T05:01:51.150Z,1.23
2019-01-29T05:04:30.188Z,1.30
2019-01-29T05:07:18.230Z,1.20
2019-01-29T05:10:06.831Z,1.30
2019-01-29T05:12:55.169Z,1.67
2019-01-29T05:15:43.191Z,3.00
2019-01-29T05:18:32.263Z,1.57
2019-01-29T05:21:14.267Z,1.30
2019-01-29T05:23:55.316Z,1.80
2019-01-29T05:26:36.636Z,1.47
2019-01-29T05:29:17.872Z,1.40
2019-01-29T05:31:58.492Z,1.90
2019-01-29T05:34:38.980Z,1.40
2019-01-29T05:37:19.924Z,1.40
2019-01-29T05:39:59.294Z,1.60
2019-01-29T05:42:47.395Z,1.97
2019-01-29T05:45:35.417Z,1.70
2019-01-29T05:48:23.522Z,1.70
2019-01-29T05:51:11.644Z,2.00
2019-01-29T05:53:59.662Z,2.03
2019-01-29T05:56:47.685Z,2.07
2019-01-29T05:59:35.718Z,2.00
2019-01-29T06:02:23.819Z,1.77
2019-01-29T06:05:11.848Z,2.00
2019-01-29T06:07:59.944Z,2.00
2019-01-29T06:10:48.043Z,2.07
2019-01-29T06:13:36.091Z,1.80
2019-01-29T06:16:24.104Z,2.37
2019-01-29T06:19:12.218Z,2.33
2019-01-29T06:21:51.352Z,2.63
2019-01-29T06:24:39.398Z,2.30
2019-01-29T06:27:27.447Z,6.50
2019-01-29T06:30:15.996Z,3.77
2019-01-29T06:33:04.006Z,1.90
2019-01-29T06:35:52.124Z,2.33
2019-01-29T06:38:40.138Z,4.47
2019-01-29T06:44:22.272Z,2.37
2019-01-29T06:47:10.294Z,3.33
2019-01-29T06:49:58.328Z,1.97
2019-01-29T06:52:46.442Z,2.47
2019-01-29T06:55:34.462Z,1.83
2019-01-29T06:58:22.550Z,2.30
2019-01-29T07:01:10.572Z,2.47
2019-01-29T07:03:58.584Z,2.50
2019-01-29T07:06:46.615Z,2.17
2019-01-29T07:09:34.663Z,2.47
2019-01-29T07:12:22.754Z,2.00
2019-01-29T07:18:26.436Z,2.40
2019-01-29T07:21:14.449Z,2.07
2019-01-29T07:23:55.502Z,2.00
2019-01-29T07:26:36.160Z,2.37
2019-01-29T07:29:16.858Z,2.30
2019-01-29T07:31:59.444Z,2.30
2019-01-29T07:34:39.959Z,2.60
2019-01-29T07:37:22.116Z,2.00
2019-01-29T07:40:03.614Z,2.07
2019-01-29T07:42:44.434Z,2.30
2019-01-29T07:45:25.518Z,1.97
2019-01-29T07:48:06.273Z,2.20
2019-01-29T07:50:47.118Z,2.30
2019-01-29T07:53:27.982Z,2.40
2019-01-29T07:56:08.630Z,2.30
2019-01-29T07:58:49.411Z,2.20
2019-01-29T08:01:30.652Z,2.37
2019-01-29T08:04:11.254Z,2.30
2019-01-29T08:06:50.507Z,2.10
2019-01-29T08:09:38.618Z,2.20
2019-01-29T08:12:26.716Z,2.20
2019-01-29T08:15:14.750Z,2.13
2019-01-29T08:18:02.944Z,2.40
2019-01-29T08:20:51.044Z,3.30
2019-01-29T08:23:31.404Z,1.80
2019-01-29T08:26:12.364Z,2.23
2019-01-29T08:28:52.707Z,2.47
2019-01-29T08:31:33.221Z,2.20
2019-01-29T08:34:13.790Z,2.60
2019-01-29T08:36:52.982Z,2.13
2019-01-29T08:39:41.083Z,2.47
2019-01-29T08:42:29.182Z,2.20
2019-01-29T08:45:17.371Z,2.40
2019-01-29T08:48:05.391Z,2.40
2019-01-29T08:50:53.406Z,2.27
2019-01-29T08:53:41.435Z,2.17
2019-01-29T08:56:29.460Z,2.17
2019-01-29T08:59:17.595Z,1.97
2019-01-29T09:02:05.613Z,2.60
2019-01-29T09:04:53.754Z,2.40
2019-01-29T09:07:41.793Z,2.20
2019-01-29T09:10:29.810Z,1.90
2019-01-29T09:13:17.814Z,2.40
2019-01-29T09:16:05.860Z,2.07
2019-01-29T09:18:53.953Z,2.77
2019-01-29T09:21:34.391Z,2.57
2019-01-29T09:24:15.487Z,2.27
2019-01-29T09:26:56.376Z,2.30
2019-01-29T09:29:36.794Z,2.20
2019-01-29T09:32:17.813Z,2.20
2019-01-29T09:34:58.700Z,1.87
2019-01-29T09:37:39.423Z,2.20
2019-01-29T09:40:20.294Z,1.90
2019-01-29T09:43:01.256Z,2.30
2019-01-29T09:45:41.686Z,2.93
2019-01-29T09:48:22.483Z,2.30
2019-01-29T09:51:03.430Z,2.03
2019-01-29T09:53:44.679Z,2.10
2019-01-29T09:56:25.555Z,1.80
2019-01-29T09:59:06.457Z,2.20
2019-01-29T10:01:47.403Z,2.07
2019-01-29T10:04:28.073Z,2.00
2019-01-29T10:07:09.122Z,2.20
2019-01-29T10:09:49.475Z,2.50
2019-01-29T10:12:30.305Z,2.07
2019-01-29T10:15:10.900Z,2.13
2019-01-29T10:17:52.152Z,1.90
2019-01-29T10:20:32.826Z,2.10
2019-01-29T10:23:13.640Z,1.90
2019-01-29T10:25:54.448Z,2.00
2019-01-29T10:28:35.127Z,1.90
2019-01-29T10:31:15.953Z,2.07
2019-01-29T10:33:56.733Z,2.20
2019-01-29T10:36:37.927Z,2.07
2019-01-29T10:39:18.870Z,2.10
2019-01-29T10:41:59.671Z,2.03
2019-01-29T10:44:40.467Z,2.10
2019-01-29T10:47:19.703Z,2.27
2019-01-29T10:50:08.721Z,2.13
2019-01-29T10:52:56.776Z,2.03
2019-01-29T10:55:47.494Z,2.00
2019-01-29T10:58:34.545Z,2.13
2019-01-29T11:01:22.555Z,1.73
2019-01-29T11:04:10.607Z,1.90
2019-01-29T11:06:58.645Z,2.10
2019-01-29T11:09:48.418Z,2.03
2019-01-29T11:12:36.423Z,2.17
2019-01-29T11:15:25.766Z,1.97
2019-01-29T11:18:14.546Z,2.20
2019-01-29T11:21:02.647Z,2.20
2019-01-29T11:23:43.445Z,2.30
2019-01-29T11:26:24.226Z,2.07
2019-01-29T11:29:04.747Z,1.93
2019-01-29T11:31:45.673Z,1.80
2019-01-29T11:34:26.467Z,2.23
2019-01-29T11:37:07.361Z,2.00
2019-01-29T11:39:48.111Z,1.97
2019-01-29T11:42:29.025Z,2.00
2019-01-29T11:45:09.857Z,1.83
2019-01-29T11:47:50.553Z,1.70
2019-01-29T11:50:31.521Z,1.87
2019-01-29T11:53:12.319Z,1.73
2019-01-29T11:55:52.887Z,1.83
2019-01-29T11:58:33.957Z,1.87
2019-01-29T12:01:17.543Z,1.80
2019-01-29T12:03:57.987Z,2.17
2019-01-29T12:06:39.035Z,1.57
2019-01-29T12:09:19.758Z,1.80
2019-01-29T12:12:00.579Z,1.90
2019-01-29T12:14:41.566Z,1.77
2019-01-29T12:17:22.542Z,2.00
2019-01-29T12:20:03.498Z,1.63
2019-01-29T12:22:44.683Z,1.70
2019-01-29T12:25:25.843Z,1.70
2019-01-29T12:28:06.523Z,1.77
2019-01-29T12:30:47.413Z,1.60
2019-01-29T12:33:28.343Z,2.10
2019-01-29T12:36:09.552Z,2.50
2019-01-29T12:38:49.901Z,1.60
2019-01-29T12:41:30.988Z,1.80
2019-01-29T12:44:11.817Z,1.70
2019-01-29T12:46:52.701Z,2.43
2019-01-29T12:49:33.809Z,2.07
2019-01-29T12:55:15.280Z,1.67
2019-01-29T12:57:55.842Z,1.40
2019-01-29T13:03:31.641Z,5.50
2019-01-29T13:06:12.459Z,2.10
2019-01-29T13:08:52.946Z,1.67
2019-01-29T13:11:33.503Z,1.80
2019-01-29T13:14:14.824Z,3.30
2019-01-29T13:16:55.353Z,2.20
2019-01-29T13:19:36.229Z,6.33
2019-01-29T13:22:16.973Z,2.37
2019-01-29T13:24:57.699Z,2.73
2019-01-29T13:27:38.380Z,2.17
2019-01-29T13:30:19.274Z,2.60
2019-01-29T13:33:00.426Z,4.60
2019-01-29T13:35:41.678Z,3.60
2019-01-29T13:38:22.550Z,3.93
2019-01-29T13:41:03.368Z,5.53
2019-01-29T13:43:44.475Z,2.33
2019-01-29T13:46:25.254Z,2.17
2019-01-29T13:49:06.148Z,1.80
2019-01-29T13:51:47.362Z,2.60
2019-01-29T13:54:28.395Z,2.33
2019-01-29T13:57:09.563Z,3.90
2019-01-29T13:59:50.460Z,1.90
2019-01-29T14:02:31.462Z,1.90
2019-01-29T14:05:12.435Z,2.50
2019-01-29T14:07:53.262Z,4.30
2019-01-29T14:10:34.000Z,1.63
2019-01-29T14:13:14.445Z,2.60
2019-01-29T14:15:56.791Z,2.40
2019-01-29T14:18:37.970Z,1.60
2019-01-29T14:21:19.192Z,1.67
2019-01-29T14:23:59.636Z,3.27
2019-01-29T14:26:47.548Z,1.83
2019-01-29T14:29:22.916Z,2.13
2019-01-29T14:32:03.274Z,2.83
2019-01-29T14:34:44.198Z,3.73
2019-01-29T14:37:23.376Z,2.00
2019-01-29T14:40:30.657Z,1.50
2019-01-29T14:43:18.957Z,1.50
2019-01-29T14:46:07.021Z,1.83
2019-01-29T14:48:55.048Z,1.80
2019-01-29T14:51:43.174Z,1.60
2019-01-29T14:54:31.205Z,6.33
2019-01-29T14:57:19.319Z,31.63
2019-01-29T15:00:10.328Z,40.93
2019-01-29T15:02:58.471Z,51.03
2019-01-29T15:06:05.848Z,32.70
2019-01-29T15:08:53.950Z,23.40
2019-01-29T15:11:42.047Z,10.13
2019-01-29T15:14:30.118Z,23.53
2019-01-29T15:17:37.329Z,25.93
2019-01-29T15:20:25.488Z,8.57
2019-01-29T15:23:05.964Z,4.57
2019-01-29T15:25:46.784Z,5.23
2019-01-29T15:28:27.734Z,5.00
2019-01-29T15:31:08.905Z,8.43
2019-01-29T15:33:50.246Z,2.33
2019-01-29T15:36:31.549Z,3.77
2019-01-29T15:39:12.816Z,6.20
2019-01-29T15:41:53.990Z,4.23
2019-01-29T15:44:34.848Z,5.77
2019-01-29T15:47:16.164Z,4.30
2019-01-29T15:49:56.830Z,1.93
2019-01-29T15:52:37.816Z,3.10
2019-01-29T15:55:18.864Z,1.80
2019-01-29T15:57:59.760Z,4.03
2019-01-29T16:00:40.622Z,3.57
2019-01-29T16:03:21.545Z,2.63
2019-01-29T16:06:00.742Z,1.77
2019-01-29T16:08:48.812Z,7.77
2019-01-29T16:11:36.922Z,1.97
2019-01-29T16:14:25.045Z,2.00
2019-01-29T16:17:13.175Z,3.40
2019-01-29T16:20:01.234Z,3.83
2019-01-29T16:22:41.802Z,4.13
2019-01-29T16:25:23.006Z,2.63
2019-01-29T16:28:04.214Z,2.43
2019-01-29T16:30:45.575Z,4.53
2019-01-29T16:33:26.487Z,4.63
2019-01-29T16:36:05.636Z,1.50
2019-01-29T16:38:53.754Z,3.60
2019-01-29T16:44:35.531Z,2.77
2019-01-29T16:47:23.679Z,1.93
2019-01-29T16:50:12.199Z,2.03
2019-01-29T16:53:00.740Z,2.10
2019-01-29T16:55:48.871Z,1.80
2019-01-29T16:58:37.096Z,1.77
2019-01-29T17:01:25.317Z,2.07
2019-01-29T17:04:13.443Z,1.80
2019-01-29T17:10:10.764Z,1.80
2019-01-29T17:12:58.868Z,1.87
2019-01-29T17:15:47.008Z,1.87
2019-01-29T17:18:35.148Z,1.70
2019-01-29T17:21:23.558Z,1.40
2019-01-29T17:24:04.419Z,1.50
2019-01-29T17:26:44.961Z,2.03
2019-01-29T17:29:25.782Z,1.70
2019-01-29T17:32:06.493Z,1.30
2019-01-29T17:34:46.874Z,1.57
2019-01-29T17:37:27.870Z,1.53
2019-01-29T17:40:09.020Z,1.40
2019-01-29T17:42:50.210Z,1.60
2019-01-29T17:45:30.865Z,1.40
2019-01-29T17:48:12.248Z,1.53
2019-01-29T17:50:53.429Z,1.70
2019-01-29T17:53:34.325Z,1.70
2019-01-29T17:56:15.696Z,2.10
2019-01-29T17:58:54.853Z,1.40
2019-01-29T18:01:43.949Z,1.67
2019-01-29T18:04:25.049Z,1.83
2019-01-29T18:07:05.847Z,1.70
2019-01-29T18:09:47.232Z,1.60
2019-01-29T18:12:27.695Z,1.60
2019-01-29T18:15:08.237Z,1.60
2019-01-29T18:17:50.101Z,1.63
2019-01-29T18:20:32.693Z,1.50
2019-01-29T18:23:14.186Z,1.70
2019-01-29T18:25:55.421Z,1.87
2019-01-29T18:28:36.429Z,1.73
2019-01-29T18:31:17.879Z,1.60
2019-01-29T18:33:59.280Z,1.70
2019-01-29T18:36:43.167Z,1.70
2019-01-29T18:39:25.081Z,1.87
2019-01-29T18:42:06.119Z,1.90
2019-01-29T18:44:47.233Z,1.97
2019-01-29T18:47:30.079Z,2.43
2019-01-29T18:50:10.714Z,2.13
2019-01-29T18:52:50.402Z,2.03
2019-01-29T18:59:07.586Z,1.90
2019-01-29T19:01:55.866Z,1.97
2019-01-29T19:04:44.173Z,3.53
2019-01-29T19:07:32.752Z,1.80
2019-01-29T19:10:42.405Z,2.00
2019-01-29T19:13:31.109Z,2.13
2019-01-29T19:16:19.662Z,2.20
2019-01-29T19:19:08.043Z,1.83
2019-01-29T19:21:49.342Z,1.90
2019-01-29T19:24:31.416Z,4.83
2019-01-29T19:27:12.636Z,6.63
2019-01-29T19:29:55.649Z,5.33
2019-01-29T19:32:36.212Z,3.07
2019-01-29T19:35:18.263Z,2.23
2019-01-29T19:37:59.310Z,2.60
2019-01-29T19:40:40.984Z,2.37
2019-01-29T19:43:23.623Z,2.57
2019-01-29T19:46:05.019Z,2.13
2019-01-29T19:48:46.435Z,2.80
2019-01-29T19:51:27.045Z,2.80
2019-01-29T19:54:09.216Z,2.93
2019-01-29T19:56:50.263Z,6.33
2019-01-29T19:59:31.682Z,2.60
2019-01-29T20:02:14.803Z,2.50
2019-01-29T20:04:55.479Z,3.13
2019-01-29T20:07:36.564Z,3.40
2019-01-29T20:10:17.779Z,2.70
2019-01-29T20:13:01.860Z,7.80
2019-01-29T20:15:43.766Z,7.90
2019-01-29T20:18:24.427Z,4.17
2019-01-29T20:21:05.963Z,3.37
2019-01-29T20:23:47.464Z,4.87
2019-01-29T20:26:38.753Z,2.73
2019-01-29T20:29:20.211Z,2.63
2019-01-29T20:32:01.180Z,2.33
2019-01-29T20:34:42.145Z,6.67
2019-01-29T20:37:30.798Z,4.90
2019-01-29T20:40:11.762Z,2.90
2019-01-29T20:42:52.367Z,2.47
2019-01-29T20:45:32.808Z,2.40
2019-01-29T20:48:21.439Z,2.77
2019-01-29T20:51:11.469Z,2.83
2019-01-29T20:54:00.162Z,2.73
2019-01-29T20:56:48.819Z,2.80
2019-01-29T20:59:40.552Z,3.50
2019-01-29T21:05:26.089Z,2.60
2019-01-29T21:08:14.410Z,2.97
2019-01-29T21:11:02.801Z,2.50
2019-01-29T21:16:53.031Z,2.43
2019-01-29T21:19:34.010Z,2.23
2019-01-29T21:22:13.494Z,2.53
2019-01-29T21:25:02.079Z,3.67
2019-01-29T21:27:50.434Z,2.30
2019-01-29T21:36:57.469Z,2.27
2019-01-29T21:39:45.730Z,2.20
2019-01-29T21:45:27.721Z,2.13
2019-01-29T21:51:23.528Z,2.17
2019-01-29T21:54:12.128Z,2.30
2019-01-29T21:57:00.314Z,2.30
2019-01-29T21:59:48.464Z,1.90
2019-01-29T22:02:36.732Z,2.00
2019-01-29T22:05:25.931Z,2.30
2019-01-29T22:08:14.117Z,2.23
2019-01-29T22:14:01.322Z,2.50
2019-01-29T22:16:49.540Z,2.40
2019-01-29T22:19:30.883Z,2.07
2019-01-29T22:22:11.543Z,2.57
2019-01-29T22:24:52.428Z,2.27
2019-01-29T22:27:33.499Z,1.70
2019-01-29T22:30:14.672Z,2.40
2019-01-29T22:32:55.546Z,1.90
2019-01-29T22:35:36.760Z,2.13
2019-01-29T22:38:17.617Z,2.07
2019-01-29T22:40:58.550Z,2.10
2019-01-29T22:43:39.088Z,1.80
2019-01-29T22:46:19.743Z,1.60
2019-01-29T22:49:00.270Z,2.00
2019-01-29T22:51:41.380Z,1.60
2019-01-29T22:54:22.545Z,2.10
2019-01-29T22:57:10.418Z,1.77
2019-01-29T22:59:58.469Z,2.00
2019-01-29T23:02:46.560Z,2.13
2019-01-29T23:05:34.690Z,1.90
2019-01-29T23:08:22.720Z,1.60
2019-01-29T23:11:10.818Z,1.70
2019-01-29T23:13:58.942Z,1.80
2019-01-29T23:16:46.970Z,1.60
2019-01-29T23:19:27.654Z,1.67
2019-01-29T23:22:08.644Z,2.20
2019-01-29T23:24:49.498Z,1.60
2019-01-29T23:27:30.536Z,1.90
2019-01-29T23:30:11.494Z,1.93
2019-01-29T23:32:52.292Z,1.70
2019-01-29T23:35:33.088Z,1.80
2019-01-29T23:38:14.058Z,1.83
2019-01-29T23:40:54.657Z,1.77
2019-01-29T23:43:35.972Z,1.70
2019-01-29T23:46:16.823Z,1.80
2019-01-29T23:48:57.882Z,1.60
2019-01-29T23:51:38.954Z,1.80
2019-01-29T23:54:19.976Z,1.70
2019-01-29T23:57:00.940Z,1.70
2019-01-29T23:59:41.696Z,2.03
